Impacts TAF Board INFO
FOR SITUATIONAL AWARENESS. NOT TO BE USED FOR FLIGHT PLANNING PURPOSES.
IDs:

KBOS - Boston/Logan Intl, MA, US

Issued at 1721 UTC 21 Jun 2018
Updated at 1947 UTC 21 Jun 2018
Potential Impact None Slight Moderate High
Time<<22/08Z 22/09Z 22/10Z 22/11Z 22/12Z 22/13Z 22/14Z 22/15Z 22/16Z 22/17Z 22/18Z 22/19Z 22/20Z>>
Type PRVL PRVL PRVL PRVL PRVL PRVL PRVL PRVL PRVL PRVL PRVL PRVL PRVL
VIS >6 >6 >6 >6 >6 >6 >6 >6 >6 >6 >6 >6 >6
CIG -- -- -- -- -- -- -- -- -- -- -- -- --
Cover FEW FEW FEW FEW FEW FEW FEW FEW FEW FEW FEW FEW FEW
FltCat VFR VFR VFR VFR VFR VFR VFR VFR VFR VFR VFR VFR VFR
WX -- -- -- -- -- -- -- -- -- -- -- -- --
WDir 360 360 360 360 360 360 360 90 90 90 90 90 90
WSpd 7 7 7 7 7 7 7 6 6 6 6 6 6
WGst -- -- -- -- -- -- -- -- -- -- -- -- --

Raw TAF
KBOS 211721Z 2118/2224 10012KT P6SM SCT045
  FM220200 05006KT P6SM SCT250
  FM220500 36007KT P6SM FEW250
  FM221500 09006KT P6SM FEW250


METAR Board
Radar Display
Forecast Discussion

FOR SITUATIONAL AWARENESS. NOT TO BE USED FOR FLIGHT PLANNING PURPOSES.